sensor_id;sensor_type;location;lat;lon;timestamp;P1;durP1;ratioP1;P2;durP2;ratioP2
70078;SDS011;57451;52.496;13.456;2022-10-17T00:00:40;15.50;;;11.13;;
70078;SDS011;57451;52.496;13.456;2022-10-17T00:03:08;18.75;;;10.80;;
70078;SDS011;57451;52.496;13.456;2022-10-17T00:05:37;16.95;;;10.77;;
70078;SDS011;57451;52.496;13.456;2022-10-17T00:08:07;15.85;;;10.07;;
70078;SDS011;57451;52.496;13.456;2022-10-17T00:10:34;16.17;;;9.88;;
70078;SDS011;57451;52.496;13.456;2022-10-17T00:13:02;17.07;;;12.37;;
70078;SDS011;57451;52.496;13.456;2022-10-17T00:15:30;17.15;;;10.73;;
70078;SDS011;57451;52.496;13.456;2022-10-17T00:17:58;14.95;;;9.80;;
70078;SDS011;57451;52.496;13.456;2022-10-17T00:20:26;17.83;;;10.40;;
70078;SDS011;57451;52.496;13.456;2022-10-17T00:22:56;14.82;;;10.63;;
70078;SDS011;57451;52.496;13.456;2022-10-17T00:25:24;17.67;;;10.23;;
70078;SDS011;57451;52.496;13.456;2022-10-17T00:27:52;14.63;;;9.98;;
70078;SDS011;57451;52.496;13.456;2022-10-17T00:30:19;14.52;;;9.48;;
70078;SDS011;57451;52.496;13.456;2022-10-17T00:32:47;14.18;;;9.07;;
70078;SDS011;57451;52.496;13.456;2022-10-17T00:35:14;14.38;;;9.50;;
70078;SDS011;57451;52.496;13.456;2022-10-17T00:37:42;14.77;;;10.30;;
70078;SDS011;57451;52.496;13.456;2022-10-17T00:40:09;15.77;;;10.38;;
70078;SDS011;57451;52.496;13.456;2022-10-17T00:42:38;16.02;;;10.23;;
70078;SDS011;57451;52.496;13.456;2022-10-17T00:45:17;14.65;;;9.90;;
70078;SDS011;57451;52.496;13.456;2022-10-17T00:47:49;14.65;;;10.13;;
70078;SDS011;57451;52.496;13.456;2022-10-17T00:50:20;15.50;;;9.93;;
70078;SDS011;57451;52.496;13.456;2022-10-17T00:52:49;12.55;;;8.68;;
70078;SDS011;57451;52.496;13.456;2022-10-17T00:55:20;12.82;;;8.95;;
70078;SDS011;57451;52.496;13.456;2022-10-17T00:57:51;12.38;;;8.05;;
70078;SDS011;57451;52.496;13.456;2022-10-17T01:00:19;11.93;;;8.75;;
70078;SDS011;57451;52.496;13.456;2022-10-17T01:02:47;12.73;;;8.30;;
70078;SDS011;57451;52.496;13.456;2022-10-17T01:05:15;13.90;;;8.85;;
70078;SDS011;57451;52.496;13.456;2022-10-17T01:07:44;12.63;;;8.35;;
70078;SDS011;57451;52.496;13.456;2022-10-17T01:10:15;12.60;;;8.55;;
70078;SDS011;57451;52.496;13.456;2022-10-17T01:12:45;11.15;;;8.43;;
70078;SDS011;57451;52.496;13.456;2022-10-17T01:15:26;11.63;;;7.43;;
70078;SDS011;57451;52.496;13.456;2022-10-17T01:18:07;10.90;;;6.93;;
70078;SDS011;57451;52.496;13.456;2022-10-17T01:20:59;9.68;;;6.72;;
70078;SDS011;57451;52.496;13.456;2022-10-17T01:23:41;10.38;;;6.70;;
70078;SDS011;57451;52.496;13.456;2022-10-17T01:26:35;10.07;;;6.93;;
70078;SDS011;57451;52.496;13.456;2022-10-17T01:29:24;10.60;;;7.20;;
70078;SDS011;57451;52.496;13.456;2022-10-17T01:32:06;11.00;;;6.65;;
70078;SDS011;57451;52.496;13.456;2022-10-17T01:34:41;10.40;;;7.07;;
70078;SDS011;57451;52.496;13.456;2022-10-17T01:37:20;9.55;;;6.32;;
70078;SDS011;57451;52.496;13.456;2022-10-17T01:39:55;9.77;;;6.72;;
70078;SDS011;57451;52.496;13.456;2022-10-17T01:42:29;9.30;;;5.80;;
70078;SDS011;57451;52.496;13.456;2022-10-17T01:45:02;8.50;;;5.88;;
70078;SDS011;57451;52.496;13.456;2022-10-17T01:47:38;9.65;;;6.18;;
70078;SDS011;57451;52.496;13.456;2022-10-17T01:50:09;12.18;;;6.18;;
70078;SDS011;57451;52.496;13.456;2022-10-17T01:52:42;12.57;;;5.93;;
70078;SDS011;57451;52.496;13.456;2022-10-17T01:55:15;8.67;;;5.70;;
70078;SDS011;57451;52.496;13.456;2022-10-17T01:57:48;9.60;;;5.75;;
70078;SDS011;57451;52.496;13.456;2022-10-17T02:00:18;8.60;;;6.30;;
70078;SDS011;57451;52.496;13.456;2022-10-17T02:02:52;11.13;;;5.70;;
70078;SDS011;57451;52.496;13.456;2022-10-17T02:05:23;8.82;;;5.50;;
70078;SDS011;57451;52.496;13.456;2022-10-17T02:07:55;8.80;;;5.97;;
70078;SDS011;57451;52.496;13.456;2022-10-17T02:10:24;8.27;;;5.82;;
70078;SDS011;57451;52.496;13.456;2022-10-17T02:13:00;8.90;;;5.68;;
70078;SDS011;57451;52.496;13.456;2022-10-17T02:15:42;8.32;;;5.72;;
70078;SDS011;57451;52.496;13.456;2022-10-17T02:18:34;8.88;;;5.38;;
70078;SDS011;57451;52.496;13.456;2022-10-17T02:21:20;7.93;;;5.47;;
70078;SDS011;57451;52.496;13.456;2022-10-17T02:23:54;9.85;;;5.75;;
70078;SDS011;57451;52.496;13.456;2022-10-17T02:26:32;10.00;;;5.13;;
70078;SDS011;57451;52.496;13.456;2022-10-17T02:29:06;8.38;;;5.03;;
70078;SDS011;57451;52.496;13.456;2022-10-17T02:31:37;10.10;;;5.13;;
70078;SDS011;57451;52.496;13.456;2022-10-17T02:34:12;8.17;;;5.40;;
70078;SDS011;57451;52.496;13.456;2022-10-17T02:36:47;8.32;;;5.30;;
70078;SDS011;57451;52.496;13.456;2022-10-17T02:39:17;7.05;;;4.60;;
70078;SDS011;57451;52.496;13.456;2022-10-17T02:41:46;9.45;;;5.20;;
70078;SDS011;57451;52.496;13.456;2022-10-17T02:44:16;9.32;;;4.75;;
70078;SDS011;57451;52.496;13.456;2022-10-17T02:46:44;7.60;;;5.00;;
70078;SDS011;57451;52.496;13.456;2022-10-17T02:49:21;7.70;;;4.65;;
70078;SDS011;57451;52.496;13.456;2022-10-17T02:51:51;10.70;;;5.00;;
70078;SDS011;57451;52.496;13.456;2022-10-17T02:54:26;7.15;;;4.65;;
70078;SDS011;57451;52.496;13.456;2022-10-17T02:56:58;10.05;;;5.13;;
70078;SDS011;57451;52.496;13.456;2022-10-17T02:59:32;8.57;;;4.80;;
70078;SDS011;57451;52.496;13.456;2022-10-17T03:02:02;6.90;;;4.55;;
70078;SDS011;57451;52.496;13.456;2022-10-17T03:04:31;8.88;;;5.05;;
70078;SDS011;57451;52.496;13.456;2022-10-17T03:06:59;7.65;;;5.18;;
70078;SDS011;57451;52.496;13.456;2022-10-17T03:09:27;8.07;;;4.85;;
70078;SDS011;57451;52.496;13.456;2022-10-17T03:11:54;9.03;;;5.00;;
70078;SDS011;57451;52.496;13.456;2022-10-17T03:14:22;9.38;;;4.78;;
70078;SDS011;57451;52.496;13.456;2022-10-17T03:16:50;7.40;;;4.60;;
70078;SDS011;57451;52.496;13.456;2022-10-17T03:19:18;7.28;;;4.60;;
70078;SDS011;57451;52.496;13.456;2022-10-17T03:21:47;8.55;;;5.00;;
70078;SDS011;57451;52.496;13.456;2022-10-17T03:24:15;10.13;;;4.90;;
70078;SDS011;57451;52.496;13.456;2022-10-17T03:26:43;7.05;;;4.75;;
70078;SDS011;57451;52.496;13.456;2022-10-17T03:29:13;8.38;;;4.90;;
70078;SDS011;57451;52.496;13.456;2022-10-17T03:31:41;7.57;;;4.70;;
70078;SDS011;57451;52.496;13.456;2022-10-17T03:34:09;7.85;;;5.25;;
70078;SDS011;57451;52.496;13.456;2022-10-17T03:36:37;9.47;;;5.10;;
70078;SDS011;57451;52.496;13.456;2022-10-17T03:39:06;8.68;;;4.68;;
70078;SDS011;57451;52.496;13.456;2022-10-17T03:41:33;9.45;;;5.20;;
70078;SDS011;57451;52.496;13.456;2022-10-17T03:44:01;7.88;;;5.30;;
70078;SDS011;57451;52.496;13.456;2022-10-17T03:46:29;7.13;;;4.68;;
70078;SDS011;57451;52.496;13.456;2022-10-17T03:48:59;8.13;;;5.20;;
70078;SDS011;57451;52.496;13.456;2022-10-17T03:51:27;11.68;;;5.15;;
70078;SDS011;57451;52.496;13.456;2022-10-17T03:54:01;8.23;;;5.10;;
70078;SDS011;57451;52.496;13.456;2022-10-17T03:56:29;7.93;;;4.90;;
70078;SDS011;57451;52.496;13.456;2022-10-17T03:59:03;7.70;;;4.97;;
70078;SDS011;57451;52.496;13.456;2022-10-17T04:01:33;7.00;;;4.47;;
70078;SDS011;57451;52.496;13.456;2022-10-17T04:04:01;7.88;;;4.90;;
70078;SDS011;57451;52.496;13.456;2022-10-17T04:06:32;7.82;;;4.90;;
70078;SDS011;57451;52.496;13.456;2022-10-17T04:08:59;7.35;;;4.90;;
70078;SDS011;57451;52.496;13.456;2022-10-17T04:11:38;9.02;;;4.88;;
70078;SDS011;57451;52.496;13.456;2022-10-17T04:14:06;9.57;;;4.70;;
70078;SDS011;57451;52.496;13.456;2022-10-17T04:16:37;9.80;;;4.85;;
70078;SDS011;57451;52.496;13.456;2022-10-17T04:19:11;7.95;;;4.80;;
70078;SDS011;57451;52.496;13.456;2022-10-17T04:21:43;7.95;;;4.85;;
70078;SDS011;57451;52.496;13.456;2022-10-17T04:24:10;7.57;;;5.22;;
70078;SDS011;57451;52.496;13.456;2022-10-17T04:26:50;7.60;;;5.30;;
70078;SDS011;57451;52.496;13.456;2022-10-17T04:29:19;8.20;;;5.10;;
70078;SDS011;57451;52.496;13.456;2022-10-17T04:31:50;8.00;;;5.65;;
70078;SDS011;57451;52.496;13.456;2022-10-17T04:34:40;9.80;;;4.97;;
70078;SDS011;57451;52.496;13.456;2022-10-17T04:37:08;9.23;;;5.63;;
70078;SDS011;57451;52.496;13.456;2022-10-17T04:39:36;7.77;;;5.30;;
70078;SDS011;57451;52.496;13.456;2022-10-17T04:42:05;10.25;;;5.15;;
70078;SDS011;57451;52.496;13.456;2022-10-17T04:44:33;7.55;;;5.20;;
70078;SDS011;57451;52.496;13.456;2022-10-17T04:47:01;8.57;;;5.50;;
70078;SDS011;57451;52.496;13.456;2022-10-17T04:49:29;8.63;;;5.35;;
70078;SDS011;57451;52.496;13.456;2022-10-17T04:52:05;8.83;;;5.23;;
70078;SDS011;57451;52.496;13.456;2022-10-17T04:54:41;7.85;;;5.53;;
70078;SDS011;57451;52.496;13.456;2022-10-17T04:57:13;8.50;;;5.43;;
70078;SDS011;57451;52.496;13.456;2022-10-17T04:59:46;8.00;;;5.22;;
70078;SDS011;57451;52.496;13.456;2022-10-17T05:02:25;7.82;;;5.30;;
70078;SDS011;57451;52.496;13.456;2022-10-17T05:04:54;10.17;;;6.03;;
70078;SDS011;57451;52.496;13.456;2022-10-17T05:07:21;7.88;;;5.38;;
70078;SDS011;57451;52.496;13.456;2022-10-17T05:09:59;10.93;;;5.13;;
70078;SDS011;57451;52.496;13.456;2022-10-17T05:12:29;8.18;;;5.40;;
70078;SDS011;57451;52.496;13.456;2022-10-17T05:14:57;8.93;;;5.57;;
70078;SDS011;57451;52.496;13.456;2022-10-17T05:17:26;7.73;;;5.17;;
70078;SDS011;57451;52.496;13.456;2022-10-17T05:19:54;7.95;;;5.55;;
70078;SDS011;57451;52.496;13.456;2022-10-17T05:22:22;9.45;;;5.85;;
70078;SDS011;57451;52.496;13.456;2022-10-17T05:24:49;8.55;;;5.55;;
70078;SDS011;57451;52.496;13.456;2022-10-17T05:27:17;10.55;;;5.88;;
70078;SDS011;57451;52.496;13.456;2022-10-17T05:29:46;9.27;;;5.97;;
70078;SDS011;57451;52.496;13.456;2022-10-17T05:32:19;10.65;;;6.07;;
70078;SDS011;57451;52.496;13.456;2022-10-17T05:34:47;10.00;;;5.70;;
70078;SDS011;57451;52.496;13.456;2022-10-17T05:37:14;10.75;;;6.32;;
70078;SDS011;57451;52.496;13.456;2022-10-17T05:39:46;7.78;;;5.70;;
70078;SDS011;57451;52.496;13.456;2022-10-17T05:42:17;8.03;;;5.60;;
70078;SDS011;57451;52.496;13.456;2022-10-17T05:44:47;9.13;;;6.03;;
70078;SDS011;57451;52.496;13.456;2022-10-17T05:47:17;9.30;;;5.90;;
70078;SDS011;57451;52.496;13.456;2022-10-17T05:49:45;12.88;;;6.10;;
70078;SDS011;57451;52.496;13.456;2022-10-17T05:52:21;11.55;;;5.75;;
70078;SDS011;57451;52.496;13.456;2022-10-17T05:55:11;8.53;;;5.77;;
70078;SDS011;57451;52.496;13.456;2022-10-17T05:57:39;10.60;;;5.40;;
70078;SDS011;57451;52.496;13.456;2022-10-17T06:00:13;9.15;;;5.95;;
70078;SDS011;57451;52.496;13.456;2022-10-17T06:02:42;9.70;;;5.90;;
70078;SDS011;57451;52.496;13.456;2022-10-17T06:05:13;7.60;;;5.47;;
70078;SDS011;57451;52.496;13.456;2022-10-17T06:07:42;9.73;;;6.10;;
70078;SDS011;57451;52.496;13.456;2022-10-17T06:10:12;8.80;;;6.00;;
70078;SDS011;57451;52.496;13.456;2022-10-17T06:12:42;12.27;;;5.72;;
70078;SDS011;57451;52.496;13.456;2022-10-17T06:15:10;9.30;;;6.22;;
70078;SDS011;57451;52.496;13.456;2022-10-17T06:17:42;8.10;;;5.40;;
70078;SDS011;57451;52.496;13.456;2022-10-17T06:20:10;8.40;;;5.63;;
70078;SDS011;57451;52.496;13.456;2022-10-17T06:22:37;9.55;;;5.75;;
70078;SDS011;57451;52.496;13.456;2022-10-17T06:25:10;12.30;;;6.18;;
70078;SDS011;57451;52.496;13.456;2022-10-17T06:27:38;11.00;;;5.88;;
70078;SDS011;57451;52.496;13.456;2022-10-17T06:30:06;11.40;;;6.25;;
70078;SDS011;57451;52.496;13.456;2022-10-17T06:32:35;10.00;;;6.07;;
70078;SDS011;57451;52.496;13.456;2022-10-17T06:35:05;8.88;;;5.95;;
70078;SDS011;57451;52.496;13.456;2022-10-17T06:37:33;8.93;;;6.53;;
70078;SDS011;57451;52.496;13.456;2022-10-17T06:40:06;8.82;;;6.05;;
70078;SDS011;57451;52.496;13.456;2022-10-17T06:42:37;10.75;;;6.43;;
70078;SDS011;57451;52.496;13.456;2022-10-17T06:45:22;9.50;;;5.63;;
70078;SDS011;57451;52.496;13.456;2022-10-17T06:48:06;10.38;;;6.30;;
70078;SDS011;57451;52.496;13.456;2022-10-17T06:50:42;10.63;;;6.32;;
70078;SDS011;57451;52.496;13.456;2022-10-17T06:53:20;9.20;;;6.28;;
70078;SDS011;57451;52.496;13.456;2022-10-17T06:56:06;10.63;;;6.15;;
70078;SDS011;57451;52.496;13.456;2022-10-17T06:58:53;8.73;;;6.00;;
70078;SDS011;57451;52.496;13.456;2022-10-17T07:01:29;9.35;;;6.45;;
70078;SDS011;57451;52.496;13.456;2022-10-17T07:04:00;9.38;;;6.45;;
70078;SDS011;57451;52.496;13.456;2022-10-17T07:06:29;9.45;;;5.95;;
70078;SDS011;57451;52.496;13.456;2022-10-17T07:09:01;9.77;;;6.05;;
70078;SDS011;57451;52.496;13.456;2022-10-17T07:11:29;11.57;;;6.27;;
70078;SDS011;57451;52.496;13.456;2022-10-17T07:13:56;9.15;;;5.72;;
70078;SDS011;57451;52.496;13.456;2022-10-17T07:16:24;9.50;;;6.15;;
70078;SDS011;57451;52.496;13.456;2022-10-17T07:19:01;10.98;;;6.30;;
70078;SDS011;57451;52.496;13.456;2022-10-17T07:21:33;9.73;;;5.60;;
70078;SDS011;57451;52.496;13.456;2022-10-17T07:24:06;11.37;;;6.10;;
70078;SDS011;57451;52.496;13.456;2022-10-17T07:26:33;11.43;;;5.63;;
70078;SDS011;57451;52.496;13.456;2022-10-17T07:29:04;10.65;;;5.40;;
70078;SDS011;57451;52.496;13.456;2022-10-17T07:31:37;8.48;;;5.82;;
70078;SDS011;57451;52.496;13.456;2022-10-17T07:34:06;9.88;;;5.47;;
70078;SDS011;57451;52.496;13.456;2022-10-17T07:36:34;10.93;;;5.53;;
70078;SDS011;57451;52.496;13.456;2022-10-17T07:39:03;7.82;;;5.28;;
70078;SDS011;57451;52.496;13.456;2022-10-17T07:41:32;7.13;;;4.75;;
70078;SDS011;57451;52.496;13.456;2022-10-17T07:43:59;8.43;;;5.57;;
70078;SDS011;57451;52.496;13.456;2022-10-17T07:46:32;8.82;;;5.10;;
70078;SDS011;57451;52.496;13.456;2022-10-17T07:49:00;9.13;;;5.37;;
70078;SDS011;57451;52.496;13.456;2022-10-17T07:51:29;8.18;;;5.30;;
70078;SDS011;57451;52.496;13.456;2022-10-17T07:53:56;9.43;;;5.30;;
70078;SDS011;57451;52.496;13.456;2022-10-17T07:56:24;9.15;;;5.07;;
70078;SDS011;57451;52.496;13.456;2022-10-17T07:58:51;9.88;;;5.45;;
70078;SDS011;57451;52.496;13.456;2022-10-17T08:01:19;9.03;;;5.10;;
70078;SDS011;57451;52.496;13.456;2022-10-17T08:03:46;11.75;;;5.00;;
70078;SDS011;57451;52.496;13.456;2022-10-17T08:06:14;10.18;;;4.90;;
70078;SDS011;57451;52.496;13.456;2022-10-17T08:08:43;8.75;;;4.70;;
70078;SDS011;57451;52.496;13.456;2022-10-17T08:11:11;7.22;;;4.63;;
70078;SDS011;57451;52.496;13.456;2022-10-17T08:13:40;8.73;;;4.57;;
70078;SDS011;57451;52.496;13.456;2022-10-17T08:16:09;7.75;;;4.43;;
70078;SDS011;57451;52.496;13.456;2022-10-17T08:18:38;7.50;;;4.03;;
70078;SDS011;57451;52.496;13.456;2022-10-17T08:21:06;8.20;;;4.10;;
70078;SDS011;57451;52.496;13.456;2022-10-17T08:23:34;6.80;;;4.15;;
70078;SDS011;57451;52.496;13.456;2022-10-17T08:26:04;7.83;;;3.93;;
70078;SDS011;57451;52.496;13.456;2022-10-17T08:28:36;8.13;;;4.22;;
70078;SDS011;57451;52.496;13.456;2022-10-17T08:31:05;6.63;;;3.75;;
70078;SDS011;57451;52.496;13.456;2022-10-17T08:33:33;10.52;;;3.90;;
70078;SDS011;57451;52.496;13.456;2022-10-17T08:36:01;7.63;;;4.00;;
70078;SDS011;57451;52.496;13.456;2022-10-17T08:38:30;10.83;;;3.77;;
70078;SDS011;57451;52.496;13.456;2022-10-17T08:41:05;5.55;;;3.60;;
70078;SDS011;57451;52.496;13.456;2022-10-17T08:43:42;6.03;;;3.40;;
70078;SDS011;57451;52.496;13.456;2022-10-17T08:46:17;9.15;;;4.18;;
70078;SDS011;57451;52.496;13.456;2022-10-17T08:48:46;9.55;;;4.10;;
70078;SDS011;57451;52.496;13.456;2022-10-17T08:51:16;8.40;;;3.70;;
70078;SDS011;57451;52.496;13.456;2022-10-17T08:53:47;7.57;;;3.78;;
70078;SDS011;57451;52.496;13.456;2022-10-17T08:56:21;8.88;;;4.00;;
70078;SDS011;57451;52.496;13.456;2022-10-17T08:59:11;8.32;;;4.20;;
70078;SDS011;57451;52.496;13.456;2022-10-17T09:01:41;7.40;;;3.75;;
70078;SDS011;57451;52.496;13.456;2022-10-17T09:04:17;9.97;;;3.60;;
70078;SDS011;57451;52.496;13.456;2022-10-17T09:07:02;5.13;;;3.30;;
70078;SDS011;57451;52.496;13.456;2022-10-17T09:09:39;6.78;;;3.60;;
70078;SDS011;57451;52.496;13.456;2022-10-17T09:12:15;7.60;;;3.40;;
70078;SDS011;57451;52.496;13.456;2022-10-17T09:17:42;6.07;;;3.33;;
70078;SDS011;57451;52.496;13.456;2022-10-17T09:20:18;7.72;;;3.35;;
70078;SDS011;57451;52.496;13.456;2022-10-17T09:22:48;6.25;;;3.22;;
70078;SDS011;57451;52.496;13.456;2022-10-17T09:25:23;11.23;;;3.65;;
70078;SDS011;57451;52.496;13.456;2022-10-17T09:27:53;5.43;;;3.33;;
70078;SDS011;57451;52.496;13.456;2022-10-17T09:30:30;6.33;;;3.60;;
70078;SDS011;57451;52.496;13.456;2022-10-17T09:33:17;7.88;;;3.40;;
70078;SDS011;57451;52.496;13.456;2022-10-17T09:36:08;7.85;;;2.97;;
70078;SDS011;57451;52.496;13.456;2022-10-17T09:38:39;8.65;;;3.38;;
70078;SDS011;57451;52.496;13.456;2022-10-17T09:41:12;6.88;;;3.28;;
70078;SDS011;57451;52.496;13.456;2022-10-17T09:44:11;5.90;;;3.30;;
70078;SDS011;57451;52.496;13.456;2022-10-17T09:46:42;6.78;;;3.55;;
70078;SDS011;57451;52.496;13.456;2022-10-17T09:49:18;6.88;;;3.30;;
70078;SDS011;57451;52.496;13.456;2022-10-17T09:51:51;4.72;;;2.88;;
70078;SDS011;57451;52.496;13.456;2022-10-17T09:54:20;6.65;;;3.55;;
70078;SDS011;57451;52.496;13.456;2022-10-17T09:56:57;8.97;;;3.30;;
70078;SDS011;57451;52.496;13.456;2022-10-17T09:59:32;5.68;;;3.13;;
70078;SDS011;57451;52.496;13.456;2022-10-17T10:02:08;4.97;;;2.75;;
70078;SDS011;57451;52.496;13.456;2022-10-17T10:04:50;5.45;;;2.83;;
70078;SDS011;57451;52.496;13.456;2022-10-17T10:07:35;5.03;;;2.80;;
70078;SDS011;57451;52.496;13.456;2022-10-17T10:10:05;6.23;;;3.00;;
70078;SDS011;57451;52.496;13.456;2022-10-17T10:13:00;6.68;;;3.10;;
70078;SDS011;57451;52.496;13.456;2022-10-17T10:15:33;5.95;;;3.10;;
70078;SDS011;57451;52.496;13.456;2022-10-17T10:18:11;5.10;;;3.00;;
70078;SDS011;57451;52.496;13.456;2022-10-17T10:21:08;5.47;;;2.88;;
70078;SDS011;57451;52.496;13.456;2022-10-17T10:23:39;6.23;;;3.23;;
70078;SDS011;57451;52.496;13.456;2022-10-17T10:26:18;6.47;;;3.08;;
70078;SDS011;57451;52.496;13.456;2022-10-17T10:28:53;5.82;;;3.00;;
70078;SDS011;57451;52.496;13.456;2022-10-17T10:31:26;6.95;;;2.90;;
70078;SDS011;57451;52.496;13.456;2022-10-17T10:33:57;7.47;;;3.22;;
70078;SDS011;57451;52.496;13.456;2022-10-17T10:36:41;9.80;;;3.73;;
70078;SDS011;57451;52.496;13.456;2022-10-17T10:39:18;6.00;;;2.92;;
70078;SDS011;57451;52.496;13.456;2022-10-17T10:41:52;6.07;;;3.20;;
70078;SDS011;57451;52.496;13.456;2022-10-17T10:44:22;5.13;;;2.83;;
70078;SDS011;57451;52.496;13.456;2022-10-17T10:47:13;6.85;;;2.90;;
70078;SDS011;57451;52.496;13.456;2022-10-17T10:49:44;6.53;;;2.90;;
70078;SDS011;57451;52.496;13.456;2022-10-17T10:52:14;8.43;;;3.03;;
70078;SDS011;57451;52.496;13.456;2022-10-17T10:54:50;4.65;;;2.63;;
70078;SDS011;57451;52.496;13.456;2022-10-17T10:57:24;6.13;;;2.90;;
70078;SDS011;57451;52.496;13.456;2022-10-17T10:59:59;5.10;;;2.53;;
70078;SDS011;57451;52.496;13.456;2022-10-17T11:02:34;5.33;;;2.50;;
70078;SDS011;57451;52.496;13.456;2022-10-17T11:05:09;4.30;;;2.58;;
70078;SDS011;57451;52.496;13.456;2022-10-17T11:07:42;4.85;;;2.60;;
70078;SDS011;57451;52.496;13.456;2022-10-17T11:10:22;8.02;;;2.85;;
70078;SDS011;57451;52.496;13.456;2022-10-17T11:12:58;8.70;;;3.08;;
70078;SDS011;57451;52.496;13.456;2022-10-17T11:15:31;6.97;;;2.90;;
70078;SDS011;57451;52.496;13.456;2022-10-17T11:18:05;6.95;;;3.35;;
70078;SDS011;57451;52.496;13.456;2022-10-17T11:20:37;6.13;;;3.00;;
70078;SDS011;57451;52.496;13.456;2022-10-17T11:23:15;8.45;;;3.20;;
70078;SDS011;57451;52.496;13.456;2022-10-17T11:25:48;6.28;;;3.00;;
70078;SDS011;57451;52.496;13.456;2022-10-17T11:28:19;5.37;;;2.83;;
70078;SDS011;57451;52.496;13.456;2022-10-17T11:30:50;6.13;;;3.17;;
70078;SDS011;57451;52.496;13.456;2022-10-17T11:33:25;5.82;;;2.88;;
70078;SDS011;57451;52.496;13.456;2022-10-17T11:35:58;9.43;;;3.10;;
70078;SDS011;57451;52.496;13.456;2022-10-17T11:38:35;6.28;;;3.10;;
70078;SDS011;57451;52.496;13.456;2022-10-17T11:41:08;6.57;;;3.27;;
70078;SDS011;57451;52.496;13.456;2022-10-17T11:43:39;9.15;;;3.53;;
70078;SDS011;57451;52.496;13.456;2022-10-17T11:46:14;7.03;;;3.08;;
70078;SDS011;57451;52.496;13.456;2022-10-17T11:49:03;7.28;;;3.22;;
70078;SDS011;57451;52.496;13.456;2022-10-17T11:51:42;5.35;;;3.05;;
70078;SDS011;57451;52.496;13.456;2022-10-17T11:54:30;5.33;;;3.00;;
70078;SDS011;57451;52.496;13.456;2022-10-17T11:57:05;6.43;;;3.35;;
70078;SDS011;57451;52.496;13.456;2022-10-17T11:59:47;7.32;;;3.17;;
70078;SDS011;57451;52.496;13.456;2022-10-17T12:02:27;6.78;;;3.00;;
70078;SDS011;57451;52.496;13.456;2022-10-17T12:05:02;6.80;;;3.03;;
70078;SDS011;57451;52.496;13.456;2022-10-17T12:07:41;7.53;;;2.80;;
70078;SDS011;57451;52.496;13.456;2022-10-17T12:10:17;5.13;;;3.15;;
70078;SDS011;57451;52.496;13.456;2022-10-17T12:12:51;6.28;;;3.17;;
70078;SDS011;57451;52.496;13.456;2022-10-17T12:15:26;6.25;;;3.00;;
70078;SDS011;57451;52.496;13.456;2022-10-17T12:17:57;5.90;;;3.13;;
70078;SDS011;57451;52.496;13.456;2022-10-17T12:20:31;5.53;;;3.10;;
70078;SDS011;57451;52.496;13.456;2022-10-17T12:23:03;5.85;;;3.20;;
70078;SDS011;57451;52.496;13.456;2022-10-17T12:25:49;5.05;;;3.05;;
70078;SDS011;57451;52.496;13.456;2022-10-17T12:28:22;5.75;;;3.40;;
70078;SDS011;57451;52.496;13.456;2022-10-17T12:30:54;6.53;;;3.03;;
70078;SDS011;57451;52.496;13.456;2022-10-17T12:33:29;7.07;;;3.13;;
70078;SDS011;57451;52.496;13.456;2022-10-17T12:42:28;8.50;;;3.25;;
70078;SDS011;57451;52.496;13.456;2022-10-17T12:45:43;6.57;;;3.47;;
70078;SDS011;57451;52.496;13.456;2022-10-17T12:51:26;7.28;;;3.30;;
70078;SDS011;57451;52.496;13.456;2022-10-17T12:54:07;6.53;;;3.30;;
70078;SDS011;57451;52.496;13.456;2022-10-17T12:56:40;5.50;;;3.42;;
70078;SDS011;57451;52.496;13.456;2022-10-17T12:59:12;7.45;;;3.40;;
70078;SDS011;57451;52.496;13.456;2022-10-17T13:01:42;6.57;;;3.00;;
70078;SDS011;57451;52.496;13.456;2022-10-17T13:04:13;9.30;;;3.30;;
70078;SDS011;57451;52.496;13.456;2022-10-17T13:06:43;6.70;;;3.20;;
70078;SDS011;57451;52.496;13.456;2022-10-17T13:09:17;7.07;;;3.10;;
70078;SDS011;57451;52.496;13.456;2022-10-17T13:11:51;11.52;;;3.95;;
70078;SDS011;57451;52.496;13.456;2022-10-17T13:14:23;6.97;;;2.83;;
70078;SDS011;57451;52.496;13.456;2022-10-17T13:16:55;6.05;;;3.60;;
70078;SDS011;57451;52.496;13.456;2022-10-17T13:19:25;5.60;;;3.47;;
70078;SDS011;57451;52.496;13.456;2022-10-17T13:22:01;8.35;;;3.47;;
70078;SDS011;57451;52.496;13.456;2022-10-17T13:24:34;5.43;;;3.45;;
70078;SDS011;57451;52.496;13.456;2022-10-17T13:27:05;7.65;;;3.50;;
70078;SDS011;57451;52.496;13.456;2022-10-17T13:29:50;5.28;;;3.22;;
70078;SDS011;57451;52.496;13.456;2022-10-17T13:32:18;6.75;;;3.40;;
70078;SDS011;57451;52.496;13.456;2022-10-17T13:35:03;6.13;;;3.05;;
70078;SDS011;57451;52.496;13.456;2022-10-17T13:37:35;5.60;;;2.85;;
70078;SDS011;57451;52.496;13.456;2022-10-17T13:40:14;5.45;;;3.03;;
70078;SDS011;57451;52.496;13.456;2022-10-17T13:43:08;10.60;;;3.63;;
70078;SDS011;57451;52.496;13.456;2022-10-17T13:45:44;6.85;;;3.30;;
70078;SDS011;57451;52.496;13.456;2022-10-17T13:48:17;5.90;;;3.10;;
70078;SDS011;57451;52.496;13.456;2022-10-17T13:50:53;6.15;;;3.13;;
70078;SDS011;57451;52.496;13.456;2022-10-17T13:53:33;5.63;;;3.00;;
70078;SDS011;57451;52.496;13.456;2022-10-17T13:56:03;6.03;;;3.30;;
70078;SDS011;57451;52.496;13.456;2022-10-17T13:59:00;4.97;;;3.10;;
70078;SDS011;57451;52.496;13.456;2022-10-17T14:01:31;4.95;;;2.90;;
70078;SDS011;57451;52.496;13.456;2022-10-17T14:03:59;5.10;;;2.85;;
70078;SDS011;57451;52.496;13.456;2022-10-17T14:06:42;6.83;;;3.10;;
70078;SDS011;57451;52.496;13.456;2022-10-17T14:09:22;5.65;;;3.00;;
70078;SDS011;57451;52.496;13.456;2022-10-17T14:12:06;4.97;;;3.00;;
70078;SDS011;57451;52.496;13.456;2022-10-17T14:14:50;5.20;;;3.10;;
70078;SDS011;57451;52.496;13.456;2022-10-17T14:17:39;6.00;;;2.97;;
70078;SDS011;57451;52.496;13.456;2022-10-17T14:20:15;5.53;;;2.75;;
70078;SDS011;57451;52.496;13.456;2022-10-17T14:23:04;5.97;;;2.78;;
70078;SDS011;57451;52.496;13.456;2022-10-17T14:26:04;4.75;;;2.70;;
70078;SDS011;57451;52.496;13.456;2022-10-17T14:28:34;5.82;;;3.05;;
70078;SDS011;57451;52.496;13.456;2022-10-17T14:31:17;5.60;;;3.00;;
70078;SDS011;57451;52.496;13.456;2022-10-17T14:33:50;5.40;;;3.08;;
70078;SDS011;57451;52.496;13.456;2022-10-17T14:36:30;5.15;;;3.17;;
70078;SDS011;57451;52.496;13.456;2022-10-17T14:39:03;6.68;;;2.90;;
70078;SDS011;57451;52.496;13.456;2022-10-17T14:41:41;5.95;;;2.83;;
70078;SDS011;57451;52.496;13.456;2022-10-17T14:44:15;6.07;;;3.15;;
70078;SDS011;57451;52.496;13.456;2022-10-17T14:46:53;6.75;;;2.97;;
70078;SDS011;57451;52.496;13.456;2022-10-17T14:49:31;5.05;;;2.80;;
70078;SDS011;57451;52.496;13.456;2022-10-17T14:54:53;5.95;;;3.13;;
70078;SDS011;57451;52.496;13.456;2022-10-17T14:57:23;8.63;;;3.28;;
70078;SDS011;57451;52.496;13.456;2022-10-17T14:59:52;6.00;;;3.17;;
70078;SDS011;57451;52.496;13.456;2022-10-17T15:02:23;8.60;;;3.40;;
70078;SDS011;57451;52.496;13.456;2022-10-17T15:04:52;7.63;;;3.25;;
70078;SDS011;57451;52.496;13.456;2022-10-17T15:07:20;7.68;;;3.33;;
70078;SDS011;57451;52.496;13.456;2022-10-17T15:09:50;6.05;;;2.90;;
70078;SDS011;57451;52.496;13.456;2022-10-17T15:12:20;6.03;;;3.40;;
70078;SDS011;57451;52.496;13.456;2022-10-17T15:14:51;5.53;;;3.03;;
70078;SDS011;57451;52.496;13.456;2022-10-17T15:17:24;7.60;;;3.40;;
70078;SDS011;57451;52.496;13.456;2022-10-17T15:19:54;6.82;;;3.20;;
70078;SDS011;57451;52.496;13.456;2022-10-17T15:22:22;7.30;;;3.10;;